Time;durP1;ratioP1;P1;durP2;ratioP2;P2;SDS_P1;SDS_P2;PMS_P1;PMS_P2;Temp;Humidity;BMP_temperature;BMP_pressure;BME280_temperature;BME280_humidity;BME280_pressure;Samples;Min_cycle;Max_cycle;Signal;HPM_P1;HPM_P2
2022/04/15 00:00:08;;;;;;;3.42;1.67;;;10.70;84.20;;;;;;5020699;28;20061;-85
2022/04/15 00:02:39;;;;;;;3.80;1.77;;;10.70;84.30;;;;;;5015860;28;20038;-85
2022/04/15 00:05:34;;;;;;;4.45;1.67;;;10.70;84.30;;;;;;4994805;28;20058;-84
2022/04/15 00:07:54;;;;;;;3.03;1.50;;;10.60;84.30;;;;;;5012356;28;20502;-85
2022/04/15 00:10:23;;;;;;;3.70;1.45;;;10.70;84.50;;;;;;4982483;28;20033;-85
2022/04/15 00:12:50;;;;;;;4.10;1.88;;;10.60;84.50;;;;;;5012449;28;20082;-85
2022/04/15 00:15:17;;;;;;;2.97;1.63;;;10.60;84.50;;;;;;5010451;28;20038;-85
2022/04/15 00:17:44;;;;;;;4.38;2.25;;;10.60;84.70;;;;;;5006196;28;20042;-85
2022/04/15 00:20:12;;;;;;;3.67;2.00;;;10.50;84.70;;;;;;4995513;28;20049;-85
2022/04/15 00:22:40;;;;;;;5.53;2.50;;;10.50;84.80;;;;;;5012013;28;20813;-85
2022/04/15 00:25:09;;;;;;;5.10;2.22;;;10.50;84.90;;;;;;4993553;28;20046;-85
2022/04/15 00:27:38;;;;;;;3.80;1.85;;;10.50;85.00;;;;;;5015246;28;20053;-85
2022/04/15 00:30:07;;;;;;;4.45;2.45;;;10.40;85.10;;;;;;4998845;28;20069;-85
2022/04/15 00:32:35;;;;;;;3.55;2.17;;;10.40;85.20;;;;;;4983123;28;20100;-84
2022/04/15 00:35:03;;;;;;;4.25;2.90;;;10.30;85.30;;;;;;5011854;28;20054;-85
2022/04/15 00:37:31;;;;;;;3.58;2.28;;;10.30;85.30;;;;;;5011397;28;20449;-85
2022/04/15 00:40:00;;;;;;;5.35;1.83;;;10.30;85.40;;;;;;5016414;28;20120;-85
2022/04/15 00:42:28;;;;;;;4.32;2.17;;;10.30;86.00;;;;;;5013198;28;20085;-85
2022/04/15 00:45:00;;;;;;;5.25;2.72;;;10.20;85.50;;;;;;5013467;28;20132;-85
2022/04/15 00:47:46;;;;;;;4.45;2.22;;;10.20;85.70;;;;;;5014792;28;20049;-85
2022/04/15 00:50:13;;;;;;;3.00;1.60;;;10.20;85.70;;;;;;5015704;28;20038;-85
2022/04/15 00:52:44;;;;;;;4.35;1.83;;;10.10;85.90;;;;;;5013521;28;20077;-84
2022/04/15 00:55:16;;;;;;;4.10;2.17;;;10.10;85.90;;;;;;5030893;28;20449;-85
2022/04/15 00:57:44;;;;;;;4.73;2.53;;;10.10;86.00;;;;;;5014414;28;20053;-84
2022/04/15 01:00:13;;;;;;;5.40;3.45;;;10.10;86.10;;;;;;5014862;28;20041;-85
2022/04/15 01:02:40;;;;;;;4.70;2.63;;;10.00;86.20;;;;;;5030887;28;20081;-84
2022/04/15 01:05:08;;;;;;;3.90;2.40;;;10.00;86.30;;;;;;4993497;28;20112;-85
2022/04/15 01:07:47;;;;;;;4.07;2.10;;;9.90;86.40;;;;;;4988424;28;20046;-85
2022/04/15 01:10:15;;;;;;;3.38;2.17;;;9.90;86.50;;;;;;5007811;28;20038;-84
2022/04/15 01:12:48;;;;;;;6.38;2.40;;;9.90;86.70;;;;;;5024501;28;20050;-85
2022/04/15 01:15:36;;;;;;;7.25;3.03;;;9.90;86.80;;;;;;5014415;28;20069;-84
2022/04/15 01:18:03;;;;;;;3.72;2.00;;;9.90;87.40;;;;;;4997860;28;20047;-85
2022/04/15 01:20:31;;;;;;;4.88;1.95;;;9.90;86.80;;;;;;5015226;28;20088;-85
2022/04/15 01:23:19;;;;;;;8.00;3.35;;;9.80;86.80;;;;;;4996857;28;20045;-85
2022/04/15 01:25:46;;;;;;;6.80;2.88;;;9.90;87.00;;;;;;5013155;28;20046;-84
2022/04/15 01:28:16;;;;;;;4.95;3.20;;;9.80;87.10;;;;;;5010624;28;20522;-84
2022/04/15 01:30:45;;;;;;;6.53;4.15;;;9.90;87.30;;;;;;5009351;28;20100;-85
2022/04/15 01:33:12;;;;;;;7.50;4.32;;;9.80;87.20;;;;;;5013772;28;20437;-84
2022/04/15 01:35:42;;;;;;;6.53;4.05;;;9.80;87.10;;;;;;5014592;28;20042;-85
2022/04/15 01:38:14;;;;;;;5.95;3.92;;;9.80;87.30;;;;;;4997366;28;20088;-84
2022/04/15 01:40:43;;;;;;;7.55;4.68;;;9.80;87.30;;;;;;5012734;28;20046;-85
2022/04/15 01:43:14;;;;;;;6.13;4.10;;;9.80;87.40;;;;;;5028292;28;20438;-84
2022/04/15 01:45:41;;;;;;;6.47;3.95;;;9.80;87.40;;;;;;4997183;28;20045;-84
2022/04/15 01:48:08;;;;;;;4.90;3.00;;;9.80;87.40;;;;;;4981860;28;20053;-85
2022/04/15 01:50:35;;;;;;;4.95;3.05;;;9.80;87.40;;;;;;5010245;28;20042;-85
2022/04/15 01:53:02;;;;;;;4.05;2.35;;;9.90;87.50;;;;;;5013222;28;20112;-85
2022/04/15 01:55:30;;;;;;;4.97;2.63;;;9.80;87.40;;;;;;5011026;28;20049;-84
2022/04/15 01:57:57;;;;;;;4.40;2.38;;;9.90;87.50;;;;;;4996597;28;20045;-84
2022/04/15 02:00:25;;;;;;;4.65;2.65;;;9.80;87.50;;;;;;5014395;28;20401;-84
2022/04/15 02:02:52;;;;;;;4.00;2.50;;;9.90;88.10;;;;;;5029465;28;20498;-84
2022/04/15 02:05:19;;;;;;;4.25;2.28;;;9.90;87.40;;;;;;5013222;28;20034;-84
2022/04/15 02:07:46;;;;;;;4.97;2.40;;;9.90;87.50;;;;;;5013105;28;20045;-84
2022/04/15 02:10:13;;;;;;;5.82;2.97;;;9.90;87.40;;;;;;5012880;28;20046;-84
2022/04/15 02:12:40;;;;;;;4.40;2.65;;;9.90;87.50;;;;;;5013454;28;20045;-85
2022/04/15 02:15:10;;;;;;;6.32;3.42;;;9.90;87.50;;;;;;5012528;28;20045;-85
2022/04/15 02:17:37;;;;;;;5.28;2.75;;;9.80;87.40;;;;;;5009814;28;20054;-85
2022/04/15 02:20:05;;;;;;;5.50;3.47;;;9.70;87.50;;;;;;5010015;28;20132;-85
2022/04/15 02:22:32;;;;;;;6.03;3.50;;;9.80;87.70;;;;;;5003321;28;20081;-84
2022/04/15 02:25:00;;;;;;;8.43;3.88;;;9.70;87.70;;;;;;5013046;28;20136;-85
2022/04/15 02:27:27;;;;;;;6.70;4.35;;;9.60;87.80;;;;;;5010573;28;20092;-84
2022/04/15 02:29:54;;;;;;;6.00;3.55;;;9.60;87.80;;;;;;5012990;28;20040;-85
2022/04/15 02:32:23;;;;;;;5.03;3.42;;;9.50;88.00;;;;;;5012803;28;20513;-85
2022/04/15 02:34:51;;;;;;;4.88;3.15;;;9.40;88.00;;;;;;5014425;28;20096;-84
2022/04/15 02:37:18;;;;;;;4.53;2.75;;;9.40;88.10;;;;;;4996590;28;20081;-84
2022/04/15 02:39:45;;;;;;;4.43;2.33;;;9.40;88.10;;;;;;5012748;28;20532;-79
2022/04/15 02:42:12;;;;;;;3.55;2.15;;;9.40;88.00;;;;;;5012116;28;20048;-79
2022/04/15 02:44:39;;;;;;;4.22;1.98;;;9.40;88.00;;;;;;5029014;28;20073;-79
2022/04/15 02:47:07;;;;;;;4.15;2.17;;;9.40;88.00;;;;;;5009162;28;20105;-79
2022/04/15 02:49:34;;;;;;;4.97;2.20;;;9.40;88.10;;;;;;4996299;28;20038;-79
2022/04/15 02:52:02;;;;;;;3.58;2.15;;;9.40;88.10;;;;;;5003463;28;20057;-79
2022/04/15 02:54:29;;;;;;;3.90;2.03;;;9.40;88.10;;;;;;5012398;28;20108;-78
2022/04/15 02:56:56;;;;;;;3.22;1.80;;;9.40;88.10;;;;;;4996249;28;20050;-79
2022/04/15 02:59:23;;;;;;;3.47;1.33;;;9.40;88.10;;;;;;4993048;28;20491;-78
2022/04/15 03:01:50;;;;;;;2.90;1.55;;;9.50;88.10;;;;;;4993007;28;20107;-78
2022/04/15 03:04:17;;;;;;;3.33;1.70;;;9.50;88.10;;;;;;4980315;28;20100;-78
2022/04/15 03:06:45;;;;;;;2.80;1.60;;;9.50;88.20;;;;;;5011930;28;20057;-79
2022/04/15 03:09:12;;;;;;;2.83;1.20;;;9.50;88.10;;;;;;5009053;28;20049;-78
2022/04/15 03:11:39;;;;;;;3.53;1.48;;;9.60;88.10;;;;;;5005407;28;20045;-79
2022/04/15 03:14:06;;;;;;;3.35;1.65;;;9.60;88.00;;;;;;4995775;28;20046;-79
2022/04/15 03:16:34;;;;;;;3.05;1.48;;;9.60;87.90;;;;;;4992801;28;20074;-79
2022/04/15 03:19:01;;;;;;;4.20;1.75;;;9.60;87.90;;;;;;5010335;28;20494;-79
2022/04/15 03:21:28;;;;;;;4.07;1.90;;;9.60;87.90;;;;;;4995938;28;20041;-78
2022/04/15 03:23:55;;;;;;;3.25;1.77;;;9.70;88.00;;;;;;5011881;28;20044;-79
2022/04/15 03:26:22;;;;;;;3.75;1.85;;;9.70;87.80;;;;;;5012001;28;20115;-79
2022/04/15 03:28:50;;;;;;;4.45;2.35;;;9.70;87.90;;;;;;5012199;28;20383;-79
2022/04/15 03:31:17;;;;;;;3.85;2.00;;;9.70;87.80;;;;;;5013141;28;20061;-78
2022/04/15 03:33:47;;;;;;;4.97;2.22;;;9.70;87.80;;;;;;5008395;28;20046;-79
2022/04/15 03:36:14;;;;;;;3.72;1.90;;;9.80;87.80;;;;;;5008514;28;20074;-78
2022/04/15 03:38:42;;;;;;;5.53;2.75;;;9.80;87.80;;;;;;5004682;28;20495;-78
2022/04/15 03:41:09;;;;;;;6.13;3.42;;;9.80;88.00;;;;;;4995497;28;20062;-78
2022/04/15 03:43:36;;;;;;;4.38;2.28;;;9.70;87.80;;;;;;4992216;28;20050;-79
2022/04/15 03:46:03;;;;;;;5.03;2.08;;;9.70;87.90;;;;;;5006650;28;20042;-79
2022/04/15 03:48:30;;;;;;;4.18;2.30;;;9.70;87.90;;;;;;4995558;28;20038;-78
2022/04/15 03:50:58;;;;;;;3.60;2.00;;;9.70;87.90;;;;;;4995405;28;20050;-79
2022/04/15 03:53:25;;;;;;;4.68;1.83;;;9.80;87.90;;;;;;5011740;28;20061;-79
2022/04/15 03:55:52;;;;;;;4.18;1.85;;;9.80;87.90;;;;;;4995144;28;20107;-79
2022/04/15 03:58:19;;;;;;;5.32;2.45;;;9.80;87.90;;;;;;5006947;28;20494;-79
2022/04/15 04:00:46;;;;;;;3.28;2.00;;;9.80;87.80;;;;;;4990142;28;20069;-79
2022/04/15 04:03:14;;;;;;;7.45;2.70;;;9.80;87.80;;;;;;4995049;28;20046;-79
2022/04/15 04:05:42;;;;;;;5.05;2.13;;;9.80;87.90;;;;;;4975248;28;20545;-79
2022/04/15 04:08:09;;;;;;;4.53;2.60;;;9.80;87.90;;;;;;4994732;28;20576;-79
2022/04/15 04:10:36;;;;;;;3.90;2.17;;;9.80;87.90;;;;;;4988953;28;20109;-85
2022/04/15 04:13:04;;;;;;;4.63;2.08;;;9.80;87.90;;;;;;4998059;28;20050;-85
2022/04/15 04:15:32;;;;;;;3.75;1.77;;;9.80;87.90;;;;;;4993606;28;20109;-85
2022/04/15 04:17:59;;;;;;;2.60;1.50;;;9.80;87.90;;;;;;4975852;28;20096;-85
2022/04/15 04:20:26;;;;;;;3.08;1.20;;;9.80;88.50;;;;;;4990566;28;20058;-85
2022/04/15 04:22:54;;;;;;;3.35;1.30;;;9.80;87.90;;;;;;4991843;28;20080;-85
2022/04/15 04:25:21;;;;;;;2.67;1.38;;;9.70;87.90;;;;;;4991653;28;20092;-85
2022/04/15 04:27:48;;;;;;;4.72;1.90;;;9.70;88.60;;;;;;5012660;28;20042;-85
2022/04/15 04:30:16;;;;;;;2.40;1.40;;;9.60;88.00;;;;;;5011958;28;20034;-85
2022/04/15 04:32:50;;;;;;;4.10;1.40;;;9.50;88.20;;;;;;4995313;28;20038;-84
2022/04/15 04:35:19;;;;;;;3.72;1.90;;;9.40;88.30;;;;;;4988907;28;20045;-84
2022/04/15 04:37:46;;;;;;;2.45;1.10;;;9.40;88.40;;;;;;4998479;28;20307;-84
2022/04/15 04:40:14;;;;;;;5.03;1.27;;;9.30;88.50;;;;;;4987101;28;20473;-84
2022/04/15 04:42:42;;;;;;;2.05;0.90;;;9.30;88.60;;;;;;5003688;28;20112;-84
2022/04/15 04:45:13;;;;;;;2.72;1.23;;;9.20;88.70;;;;;;5001395;28;20053;-84
2022/04/15 04:47:41;;;;;;;4.03;1.40;;;9.20;88.80;;;;;;4996683;28;20057;-85
2022/04/15 04:50:09;;;;;;;2.72;1.38;;;9.20;88.90;;;;;;4995936;28;20061;-85
2022/04/15 04:52:36;;;;;;;2.72;1.20;;;9.10;88.80;;;;;;4976666;28;20045;-85
2022/04/15 04:55:04;;;;;;;2.20;1.20;;;9.10;88.90;;;;;;5000360;28;20410;-84
2022/04/15 04:57:31;;;;;;;3.88;1.42;;;9.10;88.90;;;;;;5009341;28;20077;-85
2022/04/15 04:59:59;;;;;;;2.22;1.08;;;9.10;88.90;;;;;;4982413;28;20046;-85
2022/04/15 05:02:26;;;;;;;2.55;1.30;;;9.00;88.90;;;;;;5014840;28;20374;-85
2022/04/15 05:04:52;;;;;;;3.55;1.83;;;9.00;88.90;;;;;;4998475;28;20038;-84
2022/04/15 05:07:19;;;;;;;2.65;1.33;;;9.00;89.00;;;;;;5013237;28;20052;-85
2022/04/15 05:09:46;;;;;;;3.60;1.40;;;9.00;89.00;;;;;;4992484;28;20065;-84
2022/04/15 05:12:16;;;;;;;3.85;1.40;;;9.00;89.00;;;;;;4985456;28;20046;-85
2022/04/15 05:14:45;;;;;;;2.33;1.50;;;8.90;88.90;;;;;;5013486;28;20049;-84
2022/04/15 05:17:12;;;;;;;2.55;1.23;;;8.90;88.90;;;;;;5013041;28;20164;-84
2022/04/15 05:19:43;;;;;;;2.05;1.20;;;8.90;88.90;;;;;;5029822;28;20049;-83
2022/04/15 05:22:11;;;;;;;3.05;1.38;;;8.90;88.90;;;;;;5014081;28;20164;-84
2022/04/15 05:24:38;;;;;;;2.28;1.10;;;8.90;89.00;;;;;;4999807;28;20062;-85
2022/04/15 05:27:06;;;;;;;2.40;1.23;;;8.90;88.90;;;;;;5013699;28;20100;-85
2022/04/15 05:29:33;;;;;;;2.65;1.10;;;8.90;88.90;;;;;;5015212;28;20100;-85
2022/04/15 05:32:00;;;;;;;2.10;1.00;;;8.90;88.90;;;;;;5006588;28;20117;-85
2022/04/15 05:34:28;;;;;;;2.80;1.30;;;9.00;88.90;;;;;;5029928;28;20073;-86
2022/04/15 05:36:55;;;;;;;3.38;1.33;;;9.00;88.90;;;;;;4996922;28;20093;-84
2022/04/15 05:39:22;;;;;;;2.10;1.15;;;9.00;88.80;;;;;;5012570;28;20084;-85
2022/04/15 05:41:49;;;;;;;2.65;1.00;;;9.00;88.70;;;;;;4991248;28;20053;-85
2022/04/15 05:44:16;;;;;;;2.45;1.10;;;9.10;88.70;;;;;;5028587;28;20091;-85
2022/04/15 05:46:46;;;;;;;2.80;1.15;;;9.20;88.50;;;;;;4990362;28;20042;-85
2022/04/15 05:49:14;;;;;;;2.90;1.13;;;9.20;88.40;;;;;;5012455;28;20046;-85
2022/04/15 05:51:42;;;;;;;4.13;1.38;;;9.30;88.30;;;;;;5012428;28;20034;-86
2022/04/15 05:54:10;;;;;;;3.13;1.23;;;9.30;88.20;;;;;;4993080;28;20376;-85
2022/04/15 05:56:38;;;;;;;2.08;1.10;;;9.30;88.00;;;;;;4991927;28;20058;-79
2022/04/15 05:59:05;;;;;;;3.25;1.58;;;9.40;87.90;;;;;;5018072;28;20101;-79
2022/04/15 06:01:32;;;;;;;2.97;1.45;;;9.50;87.90;;;;;;4985398;28;20398;-79
2022/04/15 06:04:00;;;;;;;2.20;1.20;;;9.50;87.70;;;;;;5013134;28;20042;-79
2022/04/15 06:06:27;;;;;;;1.92;0.77;;;9.60;87.50;;;;;;4995157;28;20502;-78
2022/04/15 06:08:54;;;;;;;2.25;1.02;;;9.70;87.40;;;;;;5011829;28;20042;-79
2022/04/15 06:11:21;;;;;;;2.65;1.13;;;9.70;87.20;;;;;;4995393;28;20152;-79
2022/04/15 06:13:49;;;;;;;2.58;1.17;;;9.80;87.10;;;;;;5011658;28;20088;-79
2022/04/15 06:16:17;;;;;;;2.30;1.20;;;9.70;86.90;;;;;;5011529;28;20152;-79
2022/04/15 06:18:45;;;;;;;2.35;1.15;;;9.80;86.90;;;;;;5011689;28;20045;-79
2022/04/15 06:21:32;;;;;;;3.78;1.40;;;9.80;87.40;;;;;;5011415;28;20137;-79
2022/04/15 06:23:59;;;;;;;4.90;1.85;;;9.90;86.70;;;;;;4986379;28;20133;-79
2022/04/15 06:26:26;;;;;;;2.85;1.48;;;9.90;86.50;;;;;;4974255;28;20409;-78
2022/04/15 06:28:53;;;;;;;3.05;1.30;;;9.90;86.20;;;;;;4992040;28;20121;-80
2022/04/15 06:31:21;;;;;;;2.90;1.25;;;9.90;86.20;;;;;;5011626;28;20064;-81
2022/04/15 06:33:50;;;;;;;3.58;1.15;;;10.00;86.30;;;;;;4979376;28;20518;-80
2022/04/15 06:36:17;;;;;;;2.95;0.90;;;10.00;86.00;;;;;;5010999;28;20060;-81
2022/04/15 06:38:44;;;;;;;2.30;1.10;;;10.10;86.00;;;;;;4978856;28;20038;-79
2022/04/15 06:41:11;;;;;;;2.88;1.48;;;10.20;85.70;;;;;;5010873;28;20482;-79
2022/04/15 06:43:38;;;;;;;3.03;1.55;;;10.30;85.80;;;;;;4994990;28;20046;-80
2022/04/15 06:46:05;;;;;;;2.53;1.48;;;10.30;85.40;;;;;;5010928;28;20069;-79
2022/04/15 06:48:32;;;;;;;2.60;1.33;;;10.30;85.40;;;;;;4991637;28;20075;-79
2022/04/15 06:51:01;;;;;;;3.20;1.00;;;10.40;85.30;;;;;;4990887;28;20045;-79
2022/04/15 06:53:28;;;;;;;1.75;0.95;;;10.40;85.10;;;;;;5002183;28;20498;-79
2022/04/15 06:55:55;;;;;;;2.97;1.83;;;10.50;85.00;;;;;;5005641;28;20049;-79
2022/04/15 06:58:22;;;;;;;2.53;1.10;;;10.60;84.80;;;;;;5006251;28;20777;-79
2022/04/15 07:00:51;;;;;;;2.22;1.00;;;10.60;84.50;;;;;;4982963;28;20057;-80
2022/04/15 07:03:19;;;;;;;1.40;0.68;;;10.70;84.40;;;;;;4991915;28;20132;-80
2022/04/15 07:05:46;;;;;;;2.35;0.88;;;10.90;84.10;;;;;;5013370;28;20091;-80
2022/04/15 07:08:13;;;;;;;4.03;1.10;;;10.90;83.60;;;;;;4981999;28;20505;-79
2022/04/15 07:10:41;;;;;;;2.50;0.80;;;10.90;83.40;;;;;;4995812;28;20053;-80
2022/04/15 07:13:08;;;;;;;2.15;0.70;;;11.00;83.10;;;;;;5009210;28;20056;-79
2022/04/15 07:15:35;;;;;;;1.55;0.90;;;11.00;83.00;;;;;;4979597;28;21003;-79
2022/04/15 07:18:03;;;;;;;1.60;0.73;;;11.10;82.90;;;;;;5004049;28;20115;-79
2022/04/15 07:20:31;;;;;;;1.50;0.70;;;11.20;82.80;;;;;;4977909;28;20081;-80
2022/04/15 07:23:00;;;;;;;1.42;0.70;;;11.20;82.50;;;;;;5001673;28;20042;-81
2022/04/15 07:25:27;;;;;;;1.40;0.70;;;11.20;82.50;;;;;;4979104;28;20116;-81
2022/04/15 07:27:55;;;;;;;1.90;0.68;;;11.20;82.50;;;;;;4982201;28;20053;-83
2022/04/15 07:30:24;;;;;;;1.55;0.80;;;11.20;82.40;;;;;;5004569;28;20038;-82
2022/04/15 07:32:52;;;;;;;1.63;0.60;;;11.10;82.40;;;;;;5000956;28;20490;-83
2022/04/15 07:35:19;;;;;;;1.63;0.70;;;11.20;82.90;;;;;;4995827;28;20474;-83
2022/04/15 07:37:46;;;;;;;3.38;0.60;;;11.10;82.20;;;;;;4981114;28;20104;-85
2022/04/15 07:40:13;;;;;;;1.92;0.85;;;11.10;82.30;;;;;;4995593;28;20494;-84
2022/04/15 07:42:41;;;;;;;1.85;0.65;;;11.00;82.20;;;;;;4995425;28;20053;-82
2022/04/15 07:45:08;;;;;;;1.35;0.52;;;11.00;82.30;;;;;;4979393;28;20129;-82
2022/04/15 07:47:35;;;;;;;1.95;0.73;;;11.00;82.30;;;;;;4985237;28;20038;-83
2022/04/15 07:50:22;;;;;;;2.67;0.90;;;11.00;82.20;;;;;;4998350;28;20038;-83
2022/04/15 07:52:50;;;;;;;3.08;0.50;;;11.00;82.40;;;;;;4999637;28;20136;-81
2022/04/15 07:55:17;;;;;;;0.80;0.47;;;11.00;82.40;;;;;;4979437;28;20118;-79
2022/04/15 07:57:44;;;;;;;1.05;0.40;;;11.00;82.20;;;;;;4985842;28;20058;-80
2022/04/15 08:00:12;;;;;;;0.73;0.43;;;11.10;82.20;;;;;;4975439;28;20054;-81
2022/04/15 08:02:39;;;;;;;0.80;0.50;;;11.10;82.10;;;;;;4970580;28;20052;-80
2022/04/15 08:05:07;;;;;;;1.55;0.60;;;11.10;82.20;;;;;;5008795;28;20046;-81
2022/04/15 08:07:34;;;;;;;2.70;0.60;;;11.10;82.10;;;;;;4988938;28;20041;-81
2022/04/15 08:10:03;;;;;;;2.30;0.47;;;11.10;82.00;;;;;;5007561;28;20088;-83
2022/04/15 08:12:30;;;;;;;1.38;0.60;;;11.10;82.10;;;;;;4986949;28;20042;-82
2022/04/15 08:15:00;;;;;;;2.42;0.70;;;11.10;82.00;;;;;;4966462;28;20046;-82
2022/04/15 08:17:29;;;;;;;2.08;0.60;;;11.00;82.60;;;;;;4984881;28;20437;-83
2022/04/15 08:19:58;;;;;;;1.52;0.63;;;11.00;82.10;;;;;;4974340;28;20034;-83
2022/04/15 08:22:26;;;;;;;1.55;0.82;;;11.00;82.00;;;;;;4988439;28;20052;-82
2022/04/15 08:24:54;;;;;;;1.40;0.70;;;11.00;81.80;;;;;;4998724;28;20382;-82
2022/04/15 08:27:21;;;;;;;1.55;0.60;;;10.90;82.00;;;;;;5012431;28;20429;-82
2022/04/15 08:29:49;;;;;;;1.48;0.63;;;11.00;82.10;;;;;;5006226;28;20042;-82
2022/04/15 08:32:16;;;;;;;2.45;0.98;;;11.00;82.00;;;;;;4985546;28;20061;-82
2022/04/15 08:34:44;;;;;;;1.83;0.93;;;11.10;81.90;;;;;;4998483;28;20081;-82
2022/04/15 08:37:13;;;;;;;1.00;0.50;;;11.10;81.80;;;;;;4999612;28;20145;-80
2022/04/15 08:39:40;;;;;;;1.83;0.77;;;11.10;81.80;;;;;;4996894;28;20387;-80
2022/04/15 08:42:09;;;;;;;1.98;0.73;;;11.10;81.70;;;;;;5009133;28;20046;-80
2022/04/15 08:44:36;;;;;;;2.13;1.17;;;11.20;81.70;;;;;;4995074;28;20043;-78
2022/04/15 08:47:03;;;;;;;2.35;0.40;;;11.20;81.70;;;;;;4991339;28;20526;-79
2022/04/15 08:49:32;;;;;;;1.35;0.60;;;11.20;81.60;;;;;;5011913;28;20048;-79
2022/04/15 08:52:00;;;;;;;1.15;0.60;;;11.30;81.50;;;;;;4998635;28;20042;-79
2022/04/15 08:54:27;;;;;;;1.98;0.70;;;11.30;81.60;;;;;;4982120;28;20502;-81
2022/04/15 08:56:54;;;;;;;4.50;0.68;;;11.30;81.50;;;;;;5020370;28;20054;-81
2022/04/15 08:59:21;;;;;;;1.70;0.60;;;11.30;81.50;;;;;;5011307;28;20046;-82
2022/04/15 09:01:50;;;;;;;3.60;1.25;;;11.40;81.50;;;;;;4981476;28;20112;-80
2022/04/15 09:04:18;;;;;;;1.92;0.88;;;11.30;81.40;;;;;;5014155;28;20053;-80
2022/04/15 09:06:53;;;;;;;2.67;1.00;;;11.20;81.50;;;;;;5014010;28;20046;-80
2022/04/15 09:09:24;;;;;;;3.22;1.00;;;11.20;81.70;;;;;;5021151;28;20117;-80
2022/04/15 09:11:51;;;;;;;3.17;1.10;;;11.30;81.60;;;;;;5014093;28;20045;-79
2022/04/15 09:14:21;;;;;;;2.80;1.42;;;11.30;81.50;;;;;;5014313;28;20029;-79
2022/04/15 09:16:48;;;;;;;2.47;0.85;;;11.30;81.40;;;;;;5012626;28;20146;-79
2022/04/15 09:19:17;;;;;;;2.50;0.98;;;11.20;81.40;;;;;;5011099;28;20081;-80
2022/04/15 09:21:55;;;;;;;2.97;1.13;;;11.30;81.50;;;;;;5008663;28;20046;-81
2022/04/15 09:24:30;;;;;;;2.83;1.10;;;11.30;81.30;;;;;;5010645;28;20046;-80
2022/04/15 09:26:59;;;;;;;2.33;1.15;;;11.30;81.30;;;;;;4990689;28;20038;-80
2022/04/15 09:29:33;;;;;;;2.15;1.10;;;11.20;81.20;;;;;;5014083;28;20107;-80
2022/04/15 09:32:14;;;;;;;1.95;0.90;;;11.20;81.30;;;;;;5013524;28;20058;-80
2022/04/15 09:35:04;;;;;;;1.55;0.80;;;11.20;81.30;;;;;;5013885;28;20113;-80
2022/04/15 09:37:40;;;;;;;2.83;1.13;;;11.30;81.30;;;;;;5011585;28;20100;-80
2022/04/15 09:40:15;;;;;;;1.73;0.95;;;11.30;81.20;;;;;;4981618;28;20406;-80
2022/04/15 09:42:47;;;;;;;1.70;1.00;;;11.30;81.20;;;;;;5013791;28;20145;-80
2022/04/15 09:45:19;;;;;;;2.22;1.00;;;11.30;81.20;;;;;;5013736;28;20406;-80
2022/04/15 09:47:51;;;;;;;;;;;11.20;81.10;;;;;;4996553;28;20454;-77
2022/04/15 09:50:42;;;;;;;1.73;0.90;;;11.20;81.20;;;;;;5014000;28;19925;-81
2022/04/15 09:53:17;;;;;;;2.15;1.00;;;11.20;81.20;;;;;;4997348;28;20044;-83
2022/04/15 09:55:47;;;;;;;2.33;1.15;;;11.20;81.30;;;;;;5013657;28;20553;-83
2022/04/15 09:58:31;;;;;;;2.20;0.98;;;11.20;81.20;;;;;;5000442;28;20049;-79
2022/04/15 10:01:02;;;;;;;3.08;1.00;;;11.20;81.10;;;;;;5005649;28;20046;-79
2022/04/15 10:03:33;;;;;;;1.75;0.88;;;11.20;81.10;;;;;;5014846;28;20045;-79
2022/04/15 10:06:01;;;;;;;3.00;1.30;;;11.20;81.10;;;;;;5000141;28;20115;-78
2022/04/15 10:08:49;;;;;;;2.60;1.02;;;11.20;81.10;;;;;;4983083;28;20045;-79
2022/04/15 10:11:16;;;;;;;3.85;1.45;;;11.20;81.10;;;;;;4993428;28;20422;-79
2022/04/15 10:13:46;;;;;;;2.63;1.42;;;11.30;80.90;;;;;;4985944;28;20091;-79
2022/04/15 10:16:13;;;;;;;2.10;0.98;;;11.30;80.90;;;;;;5005863;28;20065;-79
2022/04/15 10:18:41;;;;;;;2.67;1.30;;;11.30;81.00;;;;;;4994110;28;20041;-79
2022/04/15 10:21:08;;;;;;;2.17;1.20;;;11.30;80.90;;;;;;5005826;28;20050;-79
2022/04/15 10:23:35;;;;;;;1.67;0.88;;;11.30;80.80;;;;;;4994351;28;20045;-79
2022/04/15 10:26:03;;;;;;;2.38;1.08;;;11.40;80.90;;;;;;4996508;28;20050;-79
2022/04/15 10:28:45;;;;;;;3.45;1.17;;;11.50;80.80;;;;;;5010221;28;20128;-79
2022/04/15 10:31:16;;;;;;;1.73;0.80;;;11.60;80.60;;;;;;5015916;28;20073;-79
2022/04/15 10:33:48;;;;;;;2.95;0.98;;;11.60;80.60;;;;;;4986774;28;20429;-79
2022/04/15 10:36:22;;;;;;;2.20;1.00;;;11.80;80.50;;;;;;4996740;28;20041;-79
2022/04/15 10:39:19;;;;;;;3.10;1.38;;;11.80;80.40;;;;;;5011376;28;20370;-79
2022/04/15 10:41:50;;;;;;;2.40;1.15;;;11.80;80.20;;;;;;4987291;28;20092;-79
2022/04/15 10:44:39;;;;;;;3.17;1.40;;;11.80;80.30;;;;;;5033392;28;20049;-79
2022/04/15 10:47:26;;;;;;;1.63;0.77;;;11.80;80.50;;;;;;4999312;28;20065;-79
2022/04/15 10:50:03;;;;;;;3.75;1.50;;;11.80;80.50;;;;;;4995785;28;20046;-79
2022/04/15 10:52:34;;;;;;;2.28;1.15;;;11.70;80.50;;;;;;5016240;28;20091;-79
2022/04/15 10:55:03;;;;;;;3.45;1.08;;;11.70;80.50;;;;;;4979181;28;20053;-78
2022/04/15 10:57:32;;;;;;;3.05;1.77;;;11.70;80.50;;;;;;4975153;28;20102;-79
2022/04/15 11:02:49;;;;;;;6.43;1.33;;;11.60;80.50;;;;;;4992092;28;20414;-78
2022/04/15 11:05:41;;;;;;;2.45;1.00;;;11.70;80.50;;;;;;5001165;28;20810;-79
2022/04/15 11:08:13;;;;;;;2.88;1.42;;;11.80;80.50;;;;;;4973204;28;20081;-79
2022/04/15 11:10:44;;;;;;;3.20;1.27;;;11.70;80.40;;;;;;4980624;28;20057;-79
2022/04/15 11:13:27;;;;;;;2.10;0.82;;;11.70;80.50;;;;;;4960309;28;20453;-79
2022/04/15 11:15:57;;;;;;;;;;;11.80;80.40;;;;;;4986906;28;20046;-79
2022/04/15 11:18:51;;;;;;;2.10;0.88;;;11.80;80.50;;;;;;4983338;28;20371;-79
2022/04/15 11:21:39;;;;;;;1.95;0.73;;;11.80;80.50;;;;;;4974777;28;20817;-76
2022/04/15 11:24:09;;;;;;;2.30;1.20;;;11.90;80.20;;;;;;4972924;28;20050;-76
2022/04/15 11:26:37;;;;;;;2.92;1.13;;;11.90;80.10;;;;;;4976487;28;20524;-76
2022/04/15 11:29:06;;;;;;;3.42;1.33;;;12.00;80.00;;;;;;4970308;28;20447;-76
2022/04/15 11:31:35;;;;;;;2.13;0.90;;;12.10;79.80;;;;;;4993357;28;20065;-77
2022/04/15 11:34:17;;;;;;;4.00;1.85;;;12.20;79.60;;;;;;4989905;28;20118;-78
2022/04/15 11:36:47;;;;;;;2.75;1.15;;;12.30;79.20;;;;;;4980058;28;20074;-77
2022/04/15 11:39:25;;;;;;;2.30;1.15;;;12.30;79.20;;;;;;4976398;28;20049;-77
2022/04/15 11:41:54;;;;;;;3.33;1.60;;;12.40;79.10;;;;;;4991587;28;20050;-76
2022/04/15 11:44:22;;;;;;;2.50;0.88;;;12.30;78.90;;;;;;4979705;28;20467;-76
2022/04/15 11:47:15;;;;;;;2.60;1.23;;;12.30;79.00;;;;;;4990154;28;20042;-76
2022/04/15 11:49:45;;;;;;;1.85;0.90;;;12.30;78.90;;;;;;4994331;28;20124;-76
2022/04/15 11:52:26;;;;;;;2.03;0.90;;;12.30;78.90;;;;;;4980606;28;20375;-76
2022/04/15 11:54:55;;;;;;;1.88;0.90;;;12.40;78.70;;;;;;4941255;28;20133;-79
2022/04/15 11:57:22;;;;;;;1.88;1.00;;;12.40;78.70;;;;;;4977200;28;20054;-78
2022/04/15 11:59:50;;;;;;;3.35;1.02;;;12.50;78.70;;;;;;4986499;28;20046;-77
2022/04/15 12:02:18;;;;;;;3.35;1.00;;;12.60;78.50;;;;;;4987166;28;20039;-78
2022/04/15 12:04:57;;;;;;;2.92;0.90;;;12.70;78.30;;;;;;4947196;28;20046;-77
2022/04/15 12:07:25;;;;;;;3.90;1.10;;;12.80;78.00;;;;;;4971979;28;20502;-78
2022/04/15 12:09:53;;;;;;;2.55;1.02;;;12.90;77.90;;;;;;4977811;28;20089;-77
2022/04/15 12:12:23;;;;;;;2.53;1.00;;;12.90;77.70;;;;;;4983985;28;20092;-76
2022/04/15 12:14:51;;;;;;;2.20;1.05;;;13.00;77.70;;;;;;4991863;28;20053;-77
2022/04/15 12:17:20;;;;;;;2.50;0.88;;;13.00;77.60;;;;;;4968767;28;20054;-79
2022/04/15 12:19:48;;;;;;;2.20;1.05;;;13.10;77.50;;;;;;4967251;28;20051;-79
2022/04/15 12:22:16;;;;;;;3.08;1.17;;;13.10;77.30;;;;;;4959776;28;20549;-77
2022/04/15 12:24:43;;;;;;;1.77;0.90;;;13.10;77.20;;;;;;4987704;28;20494;-79
2022/04/15 12:27:15;;;;;;;2.40;1.05;;;13.20;77.10;;;;;;4975781;28;20391;-77
2022/04/15 12:29:47;;;;;;;3.15;1.02;;;13.20;77.00;;;;;;4978440;28;20076;-76
2022/04/15 12:32:24;;;;;;;2.42;1.10;;;13.30;77.00;;;;;;4992470;28;20062;-76
2022/04/15 12:34:55;;;;;;;2.60;0.90;;;13.40;77.50;;;;;;4990705;28;20051;-76
2022/04/15 12:37:41;;;;;;;2.85;1.45;;;13.50;76.60;;;;;;4982239;28;20046;-75
2022/04/15 12:40:14;;;;;;;2.78;1.15;;;13.40;76.30;;;;;;4968868;28;20070;-76
2022/04/15 12:42:43;;;;;;;1.98;1.00;;;13.40;76.30;;;;;;4995332;28;20081;-76
2022/04/15 12:45:11;;;;;;;3.17;1.10;;;13.40;76.50;;;;;;4992436;28;20134;-76
2022/04/15 12:47:39;;;;;;;2.80;1.30;;;13.40;76.30;;;;;;4992297;28;20101;-77
2022/04/15 12:50:23;;;;;;;2.28;0.90;;;13.50;76.90;;;;;;4975134;28;20451;-77
2022/04/15 12:52:52;;;;;;;2.60;1.30;;;13.40;76.10;;;;;;4976694;28;20105;-77
2022/04/15 12:55:34;;;;;;;3.15;1.45;;;13.50;76.20;;;;;;4979038;28;20469;-81
2022/04/15 12:58:15;;;;;;;2.72;1.08;;;13.50;75.90;;;;;;4992108;28;20108;-75
2022/04/15 13:00:42;;;;;;;2.58;1.27;;;13.40;76.00;;;;;;4985284;28;20156;-77
2022/04/15 13:03:09;;;;;;;2.95;1.48;;;13.40;76.00;;;;;;5009431;28;20089;-77
2022/04/15 13:05:36;;;;;;;3.92;1.27;;;13.40;76.10;;;;;;4974312;28;20108;-76